Time;durP1;ratioP1;P1;durP2;ratioP2;P2;SDS_P1;SDS_P2;PMS_P1;PMS_P2;Temp;Humidity;BMP_temperature;BMP_pressure;BME280_temperature;BME280_humidity;BME280_pressure;Samples;Min_cycle;Max_cycle;Signal;HPM_P1;HPM_P2
2021/10/11 16:04:06;;;;;;;;;;;9.50;68.50;;;;;;5080280;28;19919;-91
2021/10/11 16:06:31;;;;;;;;;;;9.40;68.80;;;;;;5090144;28;19916;-93
2021/10/11 16:08:57;;;;;;;;;;;9.40;69.00;;;;;;5086861;28;19919;-94
2021/10/11 16:11:22;;;;;;;;;;;9.40;69.20;;;;;;5091384;28;20257;-91
2021/10/11 16:13:48;;;;;;;;;;;9.30;69.30;;;;;;5088599;28;19913;-90
2021/10/11 16:16:14;;;;;;;;;;;9.30;69.50;;;;;;5085568;28;19923;-92
2021/10/11 16:18:39;;;;;;;;;;;9.30;69.70;;;;;;5118653;28;19919;-92
2021/10/11 16:21:06;;;;;;;;;;;9.20;69.80;;;;;;5120672;27;19912;-93
2021/10/11 16:23:36;;;;;;;;;;;9.20;69.90;;;;;;5107831;28;19912;-91
2021/10/11 16:26:03;;;;;;;;;;;9.20;70.10;;;;;;5107202;28;19912;-93
2021/10/11 16:28:28;;;;;;;;;;;9.10;70.20;;;;;;5107674;28;19915;-96
2021/10/11 16:30:54;;;;;;;;;;;9.00;70.30;;;;;;5094576;28;19913;-93
2021/10/11 16:33:20;;;;;;;;;;;9.00;70.50;;;;;;5090030;28;20343;-91
2021/10/11 16:35:45;;;;;;;;;;;9.00;70.70;;;;;;5088173;28;19924;-92
2021/10/11 16:38:11;;;;;;;;;;;8.90;70.80;;;;;;5121864;27;19916;-92
2021/10/11 16:40:37;;;;;;;;;;;8.90;70.90;;;;;;5118054;27;19923;-91
2021/10/11 16:43:03;;;;;;;;;;;8.80;71.00;;;;;;5087629;28;19912;-92
2021/10/11 16:45:29;;;;;;;;;;;8.70;71.10;;;;;;5089079;28;19912;-92
2021/10/11 16:47:55;;;;;;;;;;;8.70;71.20;;;;;;5080042;28;20003;-92
2021/10/11 16:50:21;;;;;;;;;;;8.70;71.40;;;;;;5073576;28;20013;-93
2021/10/11 16:52:46;;;;;;;;;;;8.60;71.50;;;;;;5070818;28;20321;-90
2021/10/11 16:55:13;;;;;;;;;;;8.50;71.60;;;;;;5073360;28;19931;-93
2021/10/11 16:57:42;;;;;;;;;;;8.40;71.70;;;;;;5074957;28;19920;-93
2021/10/11 17:00:11;;;;;;;;;;;8.40;71.90;;;;;;5075465;28;20403;-92
2021/10/11 17:02:37;;;;;;;;;;;8.40;72.70;;;;;;5073330;28;19918;-92
2021/10/11 17:05:03;;;;;;;;;;;8.30;72.30;;;;;;5074157;28;20002;-91
2021/10/11 17:07:29;;;;;;;;;;;8.20;72.50;;;;;;5100258;28;19913;-91
2021/10/11 17:09:55;;;;;;;;;;;8.20;72.70;;;;;;5073246;28;19920;-93
2021/10/11 17:12:21;;;;;;;;;;;8.10;72.80;;;;;;5074618;28;19965;-90
2021/10/11 17:14:49;;;;;;;;;;;8.10;73.00;;;;;;5073308;28;19964;-94
2021/10/11 17:17:15;;;;;;;;;;;8.00;73.20;;;;;;5074245;28;19913;-95
2021/10/11 17:19:41;;;;;;;;;;;8.00;73.30;;;;;;5071734;28;19923;-94
2021/10/11 17:22:06;;;;;;;;;;;7.90;73.50;;;;;;5077977;28;19919;-89
2021/10/11 17:24:32;;;;;;;;;;;7.90;73.80;;;;;;5073094;28;19970;-94
2021/10/11 17:26:58;;;;;;;;;;;7.80;74.00;;;;;;5080239;28;19947;-93
2021/10/11 17:29:27;;;;;;;;;;;7.80;74.20;;;;;;5069980;28;19913;-95
2021/10/11 17:31:54;;;;;;;;;;;7.70;74.40;;;;;;5076453;28;19913;-94
2021/10/11 17:34:20;;;;;;;;;;;7.70;74.60;;;;;;5109925;28;20376;-92
2021/10/11 17:36:45;;;;;;;;;;;7.70;74.70;;;;;;5073817;28;19924;-94
2021/10/11 17:39:11;;;;;;;;;;;7.60;74.80;;;;;;5075199;28;20314;-93
2021/10/11 17:41:37;;;;;;;;;;;7.60;74.90;;;;;;5074666;28;19920;-94
2021/10/11 17:44:02;;;;;;;;;;;7.60;75.00;;;;;;5073005;28;19912;-93
2021/10/11 17:46:28;;;;;;;;;;;7.50;75.10;;;;;;5074729;28;19999;-94
2021/10/11 17:48:53;;;;;;;;;;;7.50;75.30;;;;;;5073957;28;19913;-94
2021/10/11 17:51:19;;;;;;;;;;;7.50;75.40;;;;;;5075652;28;20003;-94
2021/10/11 17:53:45;;;;;;;;;;;7.40;75.60;;;;;;5073520;28;19913;-93
2021/10/11 17:56:13;;;;;;;;;;;7.40;75.70;;;;;;5071869;28;19929;-93
2021/10/11 17:58:40;;;;;;;;;;;7.40;75.80;;;;;;5068350;28;19947;-94
2021/10/11 18:01:07;;;;;;;;;;;7.40;76.00;;;;;;5074576;28;19916;-95
2021/10/11 18:03:33;;;;;;;;;;;7.30;76.20;;;;;;5075088;28;19912;-93
2021/10/11 18:05:59;;;;;;;;;;;7.30;76.40;;;;;;5075444;28;19913;-94
2021/10/11 18:08:26;;;;;;;;;;;7.30;76.60;;;;;;5079800;28;20380;-93
2021/10/11 18:10:54;;;;;;;;;;;7.30;76.80;;;;;;5086705;28;19939;-96
2021/10/11 18:13:22;;;;;;;;;;;7.20;76.90;;;;;;5086524;28;19917;-94
2021/10/11 18:24:06;;;;;;;;;;;7.10;77.50;;;;;;5477156;22;19929;-96
2021/10/11 18:26:32;;;;;;;;;;;7.10;77.60;;;;;;5032105;28;20394;-94
2021/10/11 18:28:58;;;;;;;;;;;7.00;77.70;;;;;;5023024;28;19910;-90
2021/10/11 18:31:23;;;;;;;;;;;7.00;78.00;;;;;;5027949;28;20385;-92
2021/10/11 18:33:49;;;;;;;;;;;7.00;78.20;;;;;;5014693;28;20366;-91
2021/10/11 18:36:15;;;;;;;;;;;7.00;78.40;;;;;;5014038;28;19917;-94
2021/10/11 18:38:43;;;;;;;;;;;6.90;78.50;;;;;;5015389;28;19916;-92
2021/10/11 18:41:09;;;;;;;;;;;6.90;78.70;;;;;;5017700;28;19917;-91
2021/10/11 18:43:34;;;;;;;;;;;6.90;78.90;;;;;;5019051;28;20439;-91
2021/10/11 18:46:00;;;;;;;;;;;6.80;79.00;;;;;;5015332;28;19913;-90
2021/10/11 18:48:26;;;;;;;;;;;6.80;79.20;;;;;;5016035;28;20007;-90
2021/10/11 18:50:51;;;;;;;;;;;6.80;79.40;;;;;;5025515;28;19916;-91
2021/10/11 18:53:17;;;;;;;;;;;6.80;79.70;;;;;;5015502;28;19952;-90
2021/10/11 18:55:43;;;;;;;;;;;6.80;79.80;;;;;;5016956;28;19917;-93
2021/10/11 18:58:08;;;;;;;;;;;6.80;79.90;;;;;;5016915;28;19951;-91
2021/10/11 19:00:34;;;;;;;;;;;6.70;80.00;;;;;;5028122;28;19999;-92
2021/10/11 19:02:59;;;;;;;;;;;6.70;80.10;;;;;;5030254;28;19913;-92
2021/10/11 19:05:25;;;;;;;;;;;6.70;80.20;;;;;;5033564;28;20261;-89
2021/10/11 19:07:50;;;;;;;;;;;6.70;80.30;;;;;;5037981;28;19920;-90
2021/10/11 19:10:16;;;;;;;;;;;6.70;80.50;;;;;;5032962;28;20448;-91
2021/10/11 19:12:42;;;;;;;;;;;6.60;80.60;;;;;;5033094;28;19913;-91
2021/10/11 19:15:09;;;;;;;;;;;6.60;80.70;;;;;;5034284;28;19920;-91
2021/10/11 19:17:34;;;;;;;;;;;6.60;80.90;;;;;;5033169;28;19917;-91
2021/10/11 19:20:00;;;;;;;;;;;6.60;81.10;;;;;;5034237;28;19909;-89
2021/10/11 19:22:29;;;;;;;;;;;6.60;81.30;;;;;;5034687;28;19909;-90
2021/10/11 19:24:55;;;;;;;;;;;6.50;81.30;;;;;;5032892;28;20361;-90
2021/10/11 19:27:21;;;;;;;;;;;6.50;81.40;;;;;;5033826;28;19955;-90
2021/10/11 19:29:46;;;;;;;;;;;6.50;81.60;;;;;;5034025;28;20358;-88
2021/10/11 19:32:12;;;;;;;;;;;6.50;81.80;;;;;;5039374;28;19913;-95
2021/10/11 19:34:37;;;;;;;;;;;6.50;82.00;;;;;;5022733;28;20376;-95
2021/10/11 19:37:04;;;;;;;;;;;6.40;82.10;;;;;;5027121;28;19913;-96
2021/10/11 19:39:29;;;;;;;;;;;6.40;82.30;;;;;;5029190;28;20007;-95
2021/10/11 19:47:13;;;;;;;;;;;6.40;80.60;;;;;;5118128;27;20252;-94
